ラパス の空港の天気 - METARとTAF

エル・アルト国際空港 ( SLLP / LPB ) - ボリビア ラパス
飛行場実況気象(Metar)
観測時間04/21 11:00 BOT (04/21 15:00 UTC)
風向・風速西 2m/s
視程10km以上
天気現象
少しの雲 雲底高度 610m
全天の8割程度の雲 雲底高度 6100m
気温14℃
湿度44%
気圧1041hPa
METARSLLP 211500Z 28003KT 9999 FEW020 BKN200 14/02 Q1041
過去の天気等 Google飛行場航空写真 Wunderground天気予報

過去48時間のMETAR

飛行場予報(TAF)
発表時間: 4/21 06:30 BOT (4/21 10:30 UTC)
予報対象時間: 21日8時 BOT ~ 22日8時 BOT
風向・風速西 3m/s
視程10km以上
少しの雲 雲底高度 460m
全天の4割程度の雲 雲底高度 2130m
21日11時 BOT ~ 21日13時 BOT に徐々に
全天の4割程度の雲 雲底高度 610m
少しの積乱雲 雲底高度 700m
21日14時 BOT ~ 21日18時 BOT に一時的に
視程8000m
天気現象雷雨
21日19時 BOT ~ 21日21時 BOT に徐々に
風向・風速東北東 3m/s
少しの雲 雲底高度 460m
全天の4割程度の雲 雲底高度 2130m
TAF SLLP 211030Z 2112/2212 28006KT 9999 FEW015 SCT070 TX17/2120Z TN03/2210Z
BECMG 2115/2117 SCT020 FEW023CB
TEMPO 2118/2122 8000 TSRA
BECMG 2123/2201 06005KT FEW015 SCT070